Terminal Aerodrome Forecast
Issued by NWS

Home | Current Version | Previous Version | Text Only | Print | Product List | Glossary On
Versions: 1 2 3 4 5 6 7 8 9 10 11 12 13
274
FTUS42 TJSJ 221730
TAFISX
TAF
TISX 221730Z 2218/2318 15007KT P6SM FEW014 BKN040 OVC050
     FM222200 06007KT P6SM FEW030
     FM231300 36010KT P6SM FEW030 SCT060=

USA.gov is the U.S. government's official web portal to all federal, state and local government web resources and services.